createdAt,value
2024-05-09T00:01:21.588Z,100.00
2024-05-09T00:04:23.644Z,100.00
2024-05-09T00:07:25.410Z,100.00
2024-05-09T00:10:35.390Z,100.00
2024-05-09T00:13:40.066Z,100.00
2024-05-09T00:16:41.773Z,100.00
2024-05-09T00:19:43.997Z,100.00
2024-05-09T00:22:45.845Z,100.00
2024-05-09T00:25:47.907Z,100.00
2024-05-09T00:28:49.707Z,100.00
2024-05-09T00:31:51.587Z,100.00
2024-05-09T00:34:53.377Z,100.00
2024-05-09T00:37:55.126Z,100.00
2024-05-09T00:40:56.985Z,100.00
2024-05-09T00:44:00.265Z,100.00
2024-05-09T00:47:02.151Z,100.00
2024-05-09T00:50:05.565Z,100.00
2024-05-09T00:53:15.637Z,100.00
2024-05-09T00:56:19.733Z,100.00
2024-05-09T00:59:23.639Z,100.00
2024-05-09T01:02:25.560Z,100.00
2024-05-09T01:05:27.454Z,100.00
2024-05-09T01:08:29.264Z,100.00
2024-05-09T01:11:38.019Z,100.00
2024-05-09T01:14:39.824Z,100.00
2024-05-09T01:17:42.041Z,100.00
2024-05-09T01:20:45.328Z,100.00
2024-05-09T01:23:47.754Z,100.00
2024-05-09T01:26:50.118Z,100.00
2024-05-09T01:29:51.841Z,100.00
2024-05-09T01:32:53.815Z,100.00
2024-05-09T01:35:55.737Z,100.00
2024-05-09T01:38:57.552Z,100.00
2024-05-09T01:41:59.318Z,100.00
2024-05-09T01:45:01.043Z,100.00
2024-05-09T01:48:03.452Z,100.00
2024-05-09T01:51:05.563Z,100.00
2024-05-09T01:54:07.343Z,100.00
2024-05-09T01:57:09.097Z,100.00
2024-05-09T02:00:15.577Z,100.00
2024-05-09T02:03:18.151Z,100.00
2024-05-09T02:06:20.217Z,100.00
2024-05-09T02:09:21.959Z,100.00
2024-05-09T02:12:23.782Z,100.00
2024-05-09T02:15:25.783Z,100.00
2024-05-09T02:18:27.761Z,100.00
2024-05-09T02:21:34.153Z,100.00
2024-05-09T02:24:35.891Z,100.00
2024-05-09T02:27:37.681Z,100.00
2024-05-09T02:30:41.631Z,100.00
2024-05-09T02:33:44.509Z,100.00
2024-05-09T02:36:46.298Z,100.00
2024-05-09T02:39:48.055Z,100.00
2024-05-09T02:42:49.799Z,100.00
2024-05-09T02:45:51.534Z,100.00
2024-05-09T02:48:53.480Z,100.00
2024-05-09T02:51:55.265Z,100.00
2024-05-09T02:54:57.181Z,100.00
2024-05-09T02:57:58.940Z,100.00
2024-05-09T03:01:00.814Z,100.00
2024-05-09T03:04:02.722Z,100.00
2024-05-09T03:07:04.838Z,100.00
2024-05-09T03:10:14.546Z,100.00
2024-05-09T03:13:20.126Z,100.00
2024-05-09T03:16:21.846Z,100.00
2024-05-09T03:19:23.650Z,100.00
2024-05-09T03:22:26.640Z,100.00
2024-05-09T03:25:28.396Z,100.00
2024-05-09T03:28:30.155Z,100.00
2024-05-09T03:31:31.888Z,100.00
2024-05-09T03:34:33.626Z,100.00
2024-05-09T03:37:35.435Z,100.00
2024-05-09T03:40:43.956Z,100.00
2024-05-09T03:43:45.760Z,100.00
2024-05-09T03:46:47.542Z,100.00
2024-05-09T03:49:49.303Z,100.00
2024-05-09T03:52:51.362Z,100.00
2024-05-09T03:55:53.221Z,100.00
2024-05-09T03:58:55.269Z,100.00
2024-05-09T04:01:57.564Z,100.00
2024-05-09T04:04:59.374Z,100.00
2024-05-09T04:08:01.152Z,100.00
2024-05-09T04:11:03.227Z,100.00
2024-05-09T04:14:05.085Z,100.00
2024-05-09T04:17:06.880Z,100.00
2024-05-09T04:20:12.432Z,100.00
2024-05-09T04:23:19.948Z,100.00
2024-05-09T04:26:21.804Z,100.00
2024-05-09T04:29:23.675Z,100.00
2024-05-09T04:32:25.566Z,100.00
2024-05-09T04:35:27.520Z,100.00
2024-05-09T04:38:30.368Z,100.00
2024-05-09T04:41:32.232Z,100.00
2024-05-09T04:44:34.145Z,100.00
2024-05-09T04:47:36.115Z,100.00
2024-05-09T04:50:39.456Z,100.00
2024-05-09T04:53:41.879Z,100.00
2024-05-09T04:56:43.732Z,100.00
2024-05-09T04:59:45.475Z,100.00
2024-05-09T05:02:47.322Z,100.00
2024-05-09T05:05:49.174Z,100.00
2024-05-09T05:08:51.113Z,100.00
2024-05-09T05:11:53.027Z,100.00
2024-05-09T05:14:54.819Z,100.00
2024-05-09T05:17:56.706Z,100.00
2024-05-09T05:20:58.821Z,100.00
2024-05-09T05:24:00.672Z,100.00
2024-05-09T05:27:02.452Z,100.00
2024-05-09T05:30:07.592Z,100.00
2024-05-09T05:33:13.624Z,100.00
2024-05-09T05:36:15.485Z,100.00
2024-05-09T05:39:17.169Z,100.00
2024-05-09T05:42:18.912Z,100.00
2024-05-09T05:45:20.648Z,100.00
2024-05-09T05:48:22.669Z,100.00
2024-05-09T05:51:24.607Z,100.00
2024-05-09T05:54:26.385Z,98.53
2024-05-09T05:57:28.332Z,98.33
2024-05-09T06:00:37.570Z,94.99
2024-05-09T06:03:41.530Z,98.65
2024-05-09T06:06:43.455Z,93.27
2024-05-09T06:09:47.518Z,86.50
2024-05-09T06:12:49.925Z,88.65
2024-05-09T06:15:51.669Z,83.93
2024-05-09T06:18:53.638Z,78.99
2024-05-09T06:21:55.588Z,76.54
2024-05-09T06:24:57.373Z,73.76
2024-05-09T06:28:02.540Z,69.38
2024-05-09T06:31:04.436Z,66.72
2024-05-09T06:34:06.398Z,65.49
2024-05-09T06:37:08.150Z,64.46
2024-05-09T06:40:12.516Z,63.69
2024-05-09T06:43:19.152Z,62.19
2024-05-09T06:46:21.795Z,63.84
2024-05-09T06:49:23.620Z,59.87
2024-05-09T06:52:25.342Z,63.54
2024-05-09T06:55:27.108Z,59.35
2024-05-09T06:58:28.851Z,59.44
2024-05-09T07:01:31.606Z,59.15
2024-05-09T07:04:36.916Z,57.72
2024-05-09T07:07:38.651Z,62.14
2024-05-09T07:10:40.474Z,58.81
2024-05-09T07:13:42.253Z,57.01
2024-05-09T07:16:43.999Z,56.12
2024-05-09T07:19:45.964Z,56.50
2024-05-09T07:22:47.823Z,56.92
2024-05-09T07:25:49.777Z,53.51
2024-05-09T07:28:51.607Z,54.65
2024-05-09T07:31:53.420Z,50.02
2024-05-09T07:34:55.237Z,49.93
2024-05-09T07:37:57.076Z,52.78
2024-05-09T07:40:58.892Z,52.56
2024-05-09T07:44:00.828Z,49.67
2024-05-09T07:53:37.210Z,47.98
2024-05-09T07:56:35.228Z,46.46
2024-05-09T07:59:38.189Z,45.43
2024-05-09T08:02:40.110Z,47.39
2024-05-09T08:05:42.056Z,47.61
2024-05-09T08:08:46.272Z,49.02
2024-05-09T08:11:48.112Z,45.60
2024-05-09T08:14:50.464Z,49.55
2024-05-09T08:17:52.315Z,44.91
2024-05-09T08:20:54.187Z,45.49
2024-05-09T08:23:56.023Z,44.28
2024-05-09T08:26:57.727Z,47.17
2024-05-09T08:29:59.542Z,45.02
2024-05-09T08:33:01.549Z,46.24
2024-05-09T08:36:03.531Z,49.22
2024-05-09T08:39:05.242Z,50.38
2024-05-09T08:42:08.437Z,49.74
2024-05-09T08:45:12.716Z,48.28
2024-05-09T08:48:15.698Z,47.18
2024-05-09T08:51:19.683Z,45.45
2024-05-09T08:54:22.794Z,44.04
2024-05-09T08:57:27.494Z,42.22
2024-05-09T09:00:36.802Z,41.44
2024-05-09T09:03:41.495Z,42.99
2024-05-09T09:06:44.326Z,41.64
2024-05-09T09:09:48.169Z,42.64
2024-05-09T09:13:00.101Z,41.10
2024-05-09T09:16:03.017Z,41.66
2024-05-09T09:19:05.307Z,41.20
2024-05-09T09:22:07.408Z,39.86
2024-05-09T09:25:09.261Z,41.63
2024-05-09T09:28:12.391Z,41.43
2024-05-09T09:31:19.273Z,41.99
2024-05-09T09:34:21.329Z,43.70
2024-05-09T09:37:28.809Z,43.75
2024-05-09T09:40:37.533Z,40.24
2024-05-09T09:43:43.181Z,43.07
2024-05-09T09:46:45.768Z,41.98
2024-05-09T09:49:48.832Z,42.03
2024-05-09T09:52:52.098Z,41.47
2024-05-09T09:55:56.224Z,41.49
2024-05-09T09:59:00.206Z,40.76
2024-05-09T10:02:02.158Z,38.65
2024-05-09T10:05:04.492Z,39.67
2024-05-09T10:08:08.212Z,39.40
2024-05-09T10:11:10.230Z,38.84
2024-05-09T10:14:12.218Z,41.08
2024-05-09T10:17:14.122Z,41.88
2024-05-09T10:20:21.836Z,40.13
2024-05-09T10:23:32.454Z,37.38
2024-05-09T10:26:37.897Z,40.30
2024-05-09T10:29:39.650Z,37.99
2024-05-09T10:32:41.522Z,38.73
2024-05-09T10:35:51.755Z,40.87
2024-05-09T10:38:54.560Z,39.27
2024-05-09T10:41:56.290Z,36.69
2024-05-09T10:44:59.316Z,36.55
2024-05-09T10:48:01.425Z,34.68
2024-05-09T10:51:04.223Z,35.41
2024-05-09T10:54:05.959Z,33.84
2024-05-09T10:57:08.009Z,33.44
2024-05-09T11:00:15.963Z,33.65
2024-05-09T11:03:25.571Z,33.02
2024-05-09T11:06:27.543Z,33.25
2024-05-09T11:09:29.576Z,32.44
2024-05-09T11:12:31.401Z,32.51
2024-05-09T11:15:42.827Z,32.61
2024-05-09T11:18:52.764Z,32.97
2024-05-09T11:21:54.771Z,31.48
2024-05-09T11:24:56.897Z,31.33
2024-05-09T11:28:02.607Z,31.63
2024-05-09T11:31:07.889Z,32.44
2024-05-09T11:34:10.083Z,30.84
2024-05-09T11:37:13.852Z,31.00
2024-05-09T11:40:21.525Z,32.66
2024-05-09T11:43:27.442Z,31.44
2024-05-09T11:46:29.283Z,31.43
2024-05-09T11:49:31.092Z,30.95
2024-05-09T11:52:32.868Z,31.70
2024-05-09T11:55:36.676Z,30.88
2024-05-09T11:58:39.602Z,31.82
2024-05-09T12:01:41.665Z,31.67
2024-05-09T12:04:43.613Z,30.96
2024-05-09T12:07:45.465Z,30.91
2024-05-09T12:10:47.475Z,31.11
2024-05-09T12:13:49.473Z,32.22
2024-05-09T12:16:51.312Z,31.26
2024-05-09T12:19:53.084Z,30.00
2024-05-09T12:22:54.789Z,30.64
2024-05-09T12:25:56.621Z,30.03
2024-05-09T12:28:58.372Z,30.15
2024-05-09T12:32:00.091Z,29.82
2024-05-09T12:35:02.018Z,30.27
2024-05-09T12:38:04.292Z,29.54
2024-05-09T12:41:06.077Z,29.34
2024-05-09T12:44:07.864Z,29.83
2024-05-09T12:47:09.591Z,29.90
2024-05-09T12:50:21.831Z,28.82
2024-05-09T12:53:27.089Z,29.40
2024-05-09T12:56:28.968Z,28.68
2024-05-09T12:59:30.748Z,28.25
2024-05-09T13:02:32.536Z,29.07
2024-05-09T13:05:34.771Z,28.24
2024-05-09T13:08:36.729Z,27.52
2024-05-09T13:11:38.549Z,28.78
2024-05-09T13:14:40.392Z,29.10
2024-05-09T13:17:42.280Z,27.57
2024-05-09T13:20:44.403Z,26.29
2024-05-09T13:23:46.158Z,27.89
2024-05-09T13:26:47.940Z,27.75
2024-05-09T13:29:49.801Z,28.03
2024-05-09T13:32:51.665Z,27.82
2024-05-09T13:35:53.470Z,27.06
2024-05-09T13:38:56.560Z,27.03
2024-05-09T13:41:58.325Z,26.83
2024-05-09T13:45:00.124Z,27.20
2024-05-09T13:48:03.976Z,27.03
2024-05-09T13:51:06.091Z,26.88
2024-05-09T13:54:07.977Z,26.24
2024-05-09T13:57:09.820Z,26.61
2024-05-09T14:00:22.953Z,26.85
2024-05-09T14:03:34.391Z,25.84
2024-05-09T14:06:37.058Z,25.09
2024-05-09T14:09:38.912Z,25.61
2024-05-09T14:12:40.822Z,24.62
2024-05-09T14:15:42.638Z,25.99
2024-05-09T14:18:44.506Z,25.57
2024-05-09T14:21:46.324Z,25.69
2024-05-09T14:24:48.078Z,25.16
2024-05-09T14:27:50.130Z,25.59
2024-05-09T14:30:51.987Z,26.02
2024-05-09T14:33:53.862Z,25.37
2024-05-09T14:36:55.802Z,25.24
2024-05-09T14:39:58.319Z,25.33
2024-05-09T14:43:03.150Z,25.37
2024-05-09T14:46:05.351Z,25.23
2024-05-09T14:49:09.807Z,24.51
2024-05-09T14:52:12.548Z,25.17
2024-05-09T14:55:14.572Z,25.15
2024-05-09T14:58:16.835Z,24.37
2024-05-09T15:01:20.607Z,25.32
2024-05-09T15:04:22.492Z,24.90
2024-05-09T15:07:24.436Z,24.03
2024-05-09T15:10:34.079Z,24.37
2024-05-09T15:13:38.212Z,25.01
2024-05-09T15:16:39.965Z,23.89
2024-05-09T15:19:41.758Z,23.82
2024-05-09T15:22:43.546Z,23.87
2024-05-09T15:25:45.414Z,23.55
2024-05-09T15:28:47.322Z,24.00
2024-05-09T15:31:49.103Z,23.54
2024-05-09T15:34:50.878Z,23.75
2024-05-09T15:37:52.737Z,23.62
2024-05-09T15:40:54.651Z,23.53
2024-05-09T15:43:56.525Z,23.25
2024-05-09T15:46:58.267Z,23.57
2024-05-09T15:50:00.450Z,24.01
2024-05-09T15:53:02.318Z,24.45
2024-05-09T15:56:04.359Z,24.34
2024-05-09T15:59:06.495Z,23.72
2024-05-09T16:02:11.548Z,24.46
2024-05-09T16:05:13.684Z,23.65
2024-05-09T16:08:16.218Z,23.02
2024-05-09T16:11:20.148Z,23.72
2024-05-09T16:14:22.071Z,24.97
2024-05-09T16:17:23.918Z,24.16
2024-05-09T16:20:34.816Z,25.01
2024-05-09T16:23:41.719Z,25.04
2024-05-09T16:26:43.747Z,24.95
2024-05-09T16:29:45.675Z,24.47
2024-05-09T16:32:48.704Z,25.06
2024-05-09T16:35:50.698Z,25.79
2024-05-09T16:38:52.449Z,26.19
2024-05-09T16:41:54.194Z,27.42
2024-05-09T16:44:55.940Z,28.35
2024-05-09T16:47:59.059Z,28.88
2024-05-09T16:51:01.059Z,29.14
2024-05-09T16:54:02.786Z,28.97
2024-05-09T16:57:04.907Z,28.50
2024-05-09T17:00:14.461Z,29.21
2024-05-09T17:03:21.253Z,29.70
2024-05-09T17:06:23.047Z,30.17
2024-05-09T17:09:24.738Z,30.81
2024-05-09T17:12:26.682Z,31.10
2024-05-09T17:15:28.396Z,31.99
2024-05-09T17:18:30.178Z,32.16
2024-05-09T17:21:32.002Z,32.46
2024-05-09T17:24:33.787Z,32.73
2024-05-09T17:27:35.634Z,33.32
2024-05-09T17:30:39.728Z,33.46
2024-05-09T17:33:43.133Z,32.95
2024-05-09T17:36:45.170Z,33.62
2024-05-09T17:39:47.014Z,33.88
2024-05-09T17:42:48.799Z,34.43
2024-05-09T17:45:50.576Z,34.70
2024-05-09T17:48:52.568Z,35.62
2024-05-09T17:51:55.398Z,37.86
2024-05-09T17:54:57.202Z,37.23
2024-05-09T17:57:59.135Z,37.12
2024-05-09T18:01:01.182Z,37.50
2024-05-09T18:04:03.270Z,38.24
2024-05-09T18:07:05.521Z,38.92
2024-05-09T18:10:15.928Z,44.17
2024-05-09T18:13:23.851Z,52.28
2024-05-09T18:16:26.235Z,47.82
2024-05-09T18:19:28.524Z,47.07
2024-05-09T18:22:30.387Z,46.28
2024-05-09T18:25:32.189Z,51.07
2024-05-09T18:28:34.299Z,51.60
2024-05-09T18:31:36.786Z,52.25
2024-05-09T18:34:38.628Z,52.01
2024-05-09T18:37:41.211Z,56.00
2024-05-09T18:40:45.102Z,55.95
2024-05-09T18:43:50.863Z,62.38
2024-05-09T18:46:53.159Z,60.10
2024-05-09T18:49:55.017Z,62.09
2024-05-09T18:52:56.802Z,61.91
2024-05-09T18:55:58.730Z,64.03
2024-05-09T18:59:00.465Z,65.30
2024-05-09T19:02:02.713Z,63.88
2024-05-09T19:05:04.833Z,67.08
2024-05-09T19:08:07.914Z,70.50
2024-05-09T19:11:09.762Z,72.63
2024-05-09T19:14:11.556Z,72.65
2024-05-09T19:17:13.442Z,73.68
2024-05-09T19:20:24.892Z,75.34
2024-05-09T19:23:32.562Z,77.36
2024-05-09T19:26:34.815Z,78.09
2024-05-09T19:29:36.557Z,75.13
2024-05-09T19:32:38.821Z,75.23
2024-05-09T19:35:40.828Z,77.04
2024-05-09T19:38:42.617Z,76.04
2024-05-09T19:41:44.466Z,79.11
2024-05-09T19:44:46.187Z,77.53
2024-05-09T19:47:48.171Z,76.79
2024-05-09T19:50:52.899Z,78.58
2024-05-09T19:53:55.423Z,80.23
2024-05-09T19:56:57.209Z,79.02
2024-05-09T19:59:59.017Z,81.05
2024-05-09T20:03:00.901Z,81.85
2024-05-09T20:06:03.032Z,81.59
2024-05-09T20:09:05.881Z,83.83
2024-05-09T20:12:07.696Z,85.39
2024-05-09T20:15:09.489Z,85.79
2024-05-09T20:18:11.777Z,85.26
2024-05-09T20:21:13.764Z,87.30
2024-05-09T20:24:15.610Z,87.30
2024-05-09T20:27:17.893Z,85.55
2024-05-09T20:30:28.713Z,87.16
2024-05-09T20:33:34.183Z,87.23
2024-05-09T20:36:35.951Z,86.76
2024-05-09T20:39:37.858Z,89.66
2024-05-09T20:42:39.648Z,86.11
2024-05-09T20:45:41.668Z,89.61
2024-05-09T20:48:43.616Z,88.89
2024-05-09T20:51:45.506Z,91.37
2024-05-09T20:54:47.316Z,96.06
2024-05-09T20:57:49.193Z,100.00
2024-05-09T21:00:51.109Z,100.00
2024-05-09T21:03:53.076Z,100.00
2024-05-09T21:06:54.962Z,100.00
2024-05-09T21:09:56.830Z,100.00
2024-05-09T21:12:58.667Z,100.00
2024-05-09T21:16:00.634Z,100.00
2024-05-09T21:19:02.442Z,100.00
2024-05-09T21:22:04.376Z,100.00
2024-05-09T21:25:06.280Z,100.00
2024-05-09T21:28:08.151Z,100.00
2024-05-09T21:31:09.964Z,100.00
2024-05-09T21:34:11.742Z,100.00
2024-05-09T21:37:13.621Z,100.00
2024-05-09T21:40:24.343Z,100.00
2024-05-09T21:43:33.450Z,100.00
2024-05-09T21:46:35.319Z,100.00
2024-05-09T21:49:37.101Z,100.00
2024-05-09T21:52:38.852Z,100.00
2024-05-09T21:55:43.727Z,100.00
2024-05-09T21:58:45.480Z,100.00
2024-05-09T22:01:47.448Z,100.00
2024-05-09T22:04:49.456Z,100.00
2024-05-09T22:07:51.294Z,100.00
2024-05-09T22:10:53.250Z,100.00
2024-05-09T22:13:55.060Z,100.00
2024-05-09T22:16:56.825Z,100.00
2024-05-09T22:19:58.600Z,100.00
2024-05-09T22:23:00.450Z,100.00
2024-05-09T22:26:02.197Z,100.00
2024-05-09T22:29:05.102Z,100.00
2024-05-09T22:32:07.379Z,100.00
2024-05-09T22:35:10.680Z,100.00
2024-05-09T22:38:12.478Z,100.00
2024-05-09T22:41:14.228Z,100.00
2024-05-09T22:44:15.948Z,100.00
2024-05-09T22:47:17.755Z,100.00
2024-05-09T22:50:26.685Z,100.00
2024-05-09T22:53:32.365Z,100.00
2024-05-09T22:56:34.098Z,100.00
2024-05-09T22:59:35.811Z,100.00
2024-05-09T23:02:38.109Z,100.00
2024-05-09T23:05:39.971Z,100.00
2024-05-09T23:08:41.775Z,100.00
2024-05-09T23:11:45.099Z,100.00
2024-05-09T23:14:47.070Z,100.00
2024-05-09T23:17:49.085Z,100.00
2024-05-09T23:20:51.893Z,100.00
2024-05-09T23:23:53.797Z,100.00
2024-05-09T23:26:55.756Z,100.00
2024-05-09T23:29:57.720Z,100.00
2024-05-09T23:32:59.720Z,100.00
2024-05-09T23:36:01.600Z,100.00
2024-05-09T23:39:03.420Z,100.00
2024-05-09T23:42:05.524Z,100.00
2024-05-09T23:45:07.996Z,100.00
2024-05-09T23:48:10.265Z,100.00
2024-05-09T23:51:12.104Z,100.00
2024-05-09T23:54:14.093Z,100.00
2024-05-09T23:57:15.824Z,100.00
